createdAt,value
2023-04-20T00:00:17.829Z,9.85
2023-04-20T00:02:52.140Z,9.50
2023-04-20T00:05:25.747Z,10.05
2023-04-20T00:10:33.257Z,9.90
2023-04-20T00:13:06.577Z,9.13
2023-04-20T00:15:41.249Z,10.27
2023-04-20T00:18:14.567Z,9.35
2023-04-20T00:20:47.890Z,8.60
2023-04-20T00:23:21.309Z,11.25
2023-04-20T00:25:54.652Z,9.02
2023-04-20T00:28:28.014Z,10.15
2023-04-20T00:31:02.754Z,12.85
2023-04-20T00:33:36.167Z,10.23
2023-04-20T00:36:10.309Z,9.50
2023-04-20T00:38:43.658Z,10.68
2023-04-20T00:41:16.962Z,11.10
2023-04-20T00:43:53.609Z,9.70
2023-04-20T00:46:28.418Z,12.50
2023-04-20T00:49:01.917Z,11.95
2023-04-20T00:51:36.868Z,14.60
2023-04-20T00:54:11.738Z,13.43
2023-04-20T00:56:45.541Z,12.82
2023-04-20T00:59:19.096Z,10.07
2023-04-20T01:01:54.005Z,12.48
2023-04-20T01:04:27.863Z,11.57
2023-04-20T01:07:01.471Z,11.05
2023-04-20T01:09:34.899Z,10.45
2023-04-20T01:12:08.603Z,10.88
2023-04-20T01:14:43.537Z,10.85
2023-04-20T01:19:53.662Z,10.40
2023-04-20T01:22:28.863Z,11.15
2023-04-20T01:25:03.297Z,10.95
2023-04-20T01:27:36.742Z,11.48
2023-04-20T01:30:11.145Z,10.98
2023-04-20T01:32:44.828Z,11.00
2023-04-20T01:37:52.973Z,9.77
2023-04-20T01:40:26.332Z,10.57
2023-04-20T01:42:59.671Z,11.27
2023-04-20T01:45:32.971Z,10.52
2023-04-20T01:48:06.838Z,9.77
2023-04-20T01:50:40.370Z,13.93
2023-04-20T01:53:15.105Z,11.20
2023-04-20T01:55:49.024Z,13.30
2023-04-20T01:58:22.312Z,9.15
2023-04-20T02:00:55.766Z,9.15
2023-04-20T02:03:29.254Z,10.77
2023-04-20T02:08:38.120Z,11.30
2023-04-20T02:11:14.367Z,9.00
2023-04-20T02:13:47.711Z,12.57
2023-04-20T02:16:21.904Z,10.10
2023-04-20T02:18:55.666Z,11.07
2023-04-20T02:21:29.049Z,12.45
2023-04-20T02:24:03.908Z,10.55
2023-04-20T02:26:37.305Z,11.10
2023-04-20T02:29:10.807Z,12.40
2023-04-20T02:31:44.100Z,10.48
2023-04-20T02:34:17.621Z,11.57
2023-04-20T02:36:51.070Z,10.77
2023-04-20T02:39:26.180Z,11.32
2023-04-20T02:42:01.615Z,9.50
2023-04-20T02:44:35.324Z,11.60
2023-04-20T02:47:09.971Z,9.32
2023-04-20T02:49:43.380Z,9.18
2023-04-20T02:52:17.045Z,10.25
2023-04-20T02:54:51.855Z,11.05
2023-04-20T02:57:25.559Z,12.23
2023-04-20T02:59:59.845Z,10.80
2023-04-20T03:02:44.756Z,8.05
2023-04-20T03:05:18.530Z,9.43
2023-04-20T03:07:51.845Z,10.27
2023-04-20T03:10:26.820Z,10.00
2023-04-20T03:13:05.333Z,10.25
2023-04-20T03:15:45.709Z,9.88
2023-04-20T03:18:28.319Z,11.18
2023-04-20T03:21:01.743Z,10.38
2023-04-20T03:23:37.284Z,9.30
2023-04-20T03:26:13.579Z,11.32
2023-04-20T03:29:25.233Z,10.13
2023-04-20T03:31:59.126Z,10.50
2023-04-20T03:34:32.872Z,12.23
2023-04-20T03:39:39.338Z,9.98
2023-04-20T03:42:14.236Z,10.02
2023-04-20T03:44:48.294Z,14.02
2023-04-20T03:47:21.708Z,11.55
2023-04-20T03:49:55.679Z,10.82
2023-04-20T03:52:29.059Z,10.13
2023-04-20T03:55:03.353Z,14.02
2023-04-20T03:57:38.786Z,9.80
2023-04-20T04:00:14.402Z,11.00
2023-04-20T04:55:46.569Z,9.35
2023-04-20T04:58:19.741Z,9.82
2023-04-20T05:00:52.913Z,9.68
2023-04-20T05:03:26.292Z,8.52
2023-04-20T05:05:59.658Z,16.65
2023-04-20T05:08:32.884Z,9.45
2023-04-20T05:11:07.422Z,10.23
2023-04-20T05:13:40.575Z,12.05
2023-04-20T05:16:13.819Z,9.07
2023-04-20T05:18:47.054Z,9.75
2023-04-20T05:21:20.347Z,13.13
2023-04-20T05:23:53.519Z,10.35
2023-04-20T05:26:28.043Z,11.10
2023-04-20T05:29:01.696Z,8.93
2023-04-20T05:34:08.164Z,12.32
2023-04-20T05:36:41.730Z,9.32
2023-04-20T05:39:14.999Z,13.43
2023-04-20T05:41:49.783Z,12.38
2023-04-20T05:44:22.940Z,10.98
2023-04-20T05:46:56.097Z,10.75
2023-04-20T05:49:29.382Z,11.57
2023-04-20T05:52:03.204Z,10.07
2023-04-20T05:57:11.696Z,15.15
2023-04-20T05:59:45.359Z,10.27
2023-04-20T06:02:18.668Z,11.10
2023-04-20T06:04:52.123Z,14.50
2023-04-20T06:07:25.459Z,12.52
2023-04-20T06:10:00.742Z,9.80
2023-04-20T06:12:35.346Z,11.55
2023-04-20T06:15:10.911Z,9.18
2023-04-20T06:17:44.236Z,8.77
2023-04-20T06:20:17.452Z,13.02
2023-04-20T06:22:50.859Z,9.68
2023-04-20T06:25:24.510Z,9.43
2023-04-20T06:28:00.159Z,10.07
2023-04-20T06:30:33.775Z,9.30
2023-04-20T06:33:07.170Z,11.02
2023-04-20T06:35:41.094Z,7.78
2023-04-20T06:40:47.441Z,9.43
2023-04-20T06:43:21.979Z,10.45
2023-04-20T06:45:55.424Z,9.23
2023-04-20T06:48:32.855Z,10.25
2023-04-20T06:51:06.531Z,9.05
2023-04-20T06:53:39.749Z,13.82
2023-04-20T06:56:12.976Z,9.95
2023-04-20T06:58:47.627Z,8.68
2023-04-20T07:01:20.954Z,9.25
2023-04-20T07:03:54.396Z,7.97
2023-04-20T07:06:28.589Z,10.93
2023-04-20T07:09:01.802Z,10.68
2023-04-20T07:11:34.984Z,9.68
2023-04-20T07:14:09.596Z,16.52
2023-04-20T07:16:47.756Z,12.82
2023-04-20T07:19:21.628Z,13.52
2023-04-20T07:22:00.989Z,10.10
2023-04-20T07:24:35.713Z,12.57
2023-04-20T07:27:08.972Z,13.18
2023-04-20T07:29:44.132Z,14.95
2023-04-20T07:32:22.128Z,11.00
2023-04-20T07:34:57.119Z,10.13
2023-04-20T07:37:33.982Z,11.05
2023-04-20T07:40:10.684Z,11.27
2023-04-20T07:42:48.566Z,7.22
2023-04-20T07:45:24.981Z,11.18
2023-04-20T07:48:08.072Z,17.85
2023-04-20T07:50:44.717Z,11.25
2023-04-20T07:53:20.698Z,15.77
2023-04-20T07:55:54.198Z,17.73
2023-04-20T07:58:29.880Z,14.30
2023-04-20T08:01:06.206Z,15.68
2023-04-20T08:03:42.380Z,20.50
2023-04-20T08:06:15.869Z,14.48
2023-04-20T08:08:50.767Z,21.40
2023-04-20T08:11:27.334Z,16.40
2023-04-20T08:14:06.870Z,14.20
2023-04-20T08:16:47.128Z,19.25
2023-04-20T08:19:21.202Z,18.60
2023-04-20T08:21:54.699Z,19.90
2023-04-20T08:24:34.208Z,42.53
2023-04-20T08:27:11.350Z,75.18
2023-04-20T08:29:45.199Z,94.82
2023-04-20T08:34:58.529Z,146.20
2023-04-20T08:37:33.120Z,136.15
2023-04-20T08:40:09.790Z,158.50
2023-04-20T08:42:43.054Z,164.82
2023-04-20T08:45:16.315Z,165.40
2023-04-20T08:47:51.215Z,158.75
2023-04-20T08:50:24.596Z,152.57
2023-04-20T08:52:59.144Z,142.65
2023-04-20T08:55:40.734Z,143.43
2023-04-20T08:58:19.420Z,153.77
2023-04-20T09:00:53.085Z,139.95
2023-04-20T09:03:34.786Z,42.22
2023-04-20T09:06:16.043Z,49.65
2023-04-20T09:08:49.300Z,24.52
2023-04-20T09:11:23.726Z,25.95
2023-04-20T09:14:01.314Z,27.60
2023-04-20T09:16:35.640Z,26.88
2023-04-20T09:19:11.719Z,30.80
2023-04-20T09:21:50.885Z,30.05
2023-04-20T09:24:25.508Z,25.80
2023-04-20T09:26:58.838Z,25.27
2023-04-20T09:29:32.185Z,21.35
2023-04-20T09:32:05.849Z,24.00
2023-04-20T09:34:45.717Z,24.45
2023-04-20T09:37:19.026Z,25.60
2023-04-20T09:39:52.519Z,32.33
2023-04-20T09:42:28.700Z,19.67
2023-04-20T09:45:03.092Z,23.85
2023-04-20T09:47:36.852Z,23.85
2023-04-20T09:53:03.727Z,17.90
2023-04-20T09:55:38.957Z,24.50
2023-04-20T09:58:12.375Z,21.42
2023-04-20T10:00:45.577Z,21.45
2023-04-20T10:03:19.391Z,18.13
2023-04-20T10:05:55.632Z,20.15
2023-04-20T10:08:28.976Z,19.67
2023-04-20T10:11:02.277Z,17.90
2023-04-20T10:13:35.577Z,22.67
2023-04-20T10:16:19.030Z,19.85
2023-04-20T10:19:00.303Z,18.75
2023-04-20T10:21:45.548Z,22.63
2023-04-20T10:24:30.196Z,24.05
2023-04-20T10:27:04.139Z,19.45
2023-04-20T10:29:37.337Z,24.58
2023-04-20T10:32:10.613Z,21.05
2023-04-20T10:34:44.297Z,15.15
2023-04-20T10:37:19.366Z,23.10
2023-04-20T10:39:52.585Z,15.43
2023-04-20T10:42:26.427Z,18.52
2023-04-20T10:47:34.325Z,17.38
2023-04-20T10:50:09.415Z,21.65
2023-04-20T10:52:45.420Z,17.75
2023-04-20T10:55:22.969Z,17.65
2023-04-20T10:57:56.240Z,20.15
2023-04-20T11:00:31.156Z,16.33
2023-04-20T11:03:04.603Z,18.55
2023-04-20T11:05:37.950Z,19.80
2023-04-20T11:08:12.480Z,13.50
2023-04-20T11:10:45.641Z,17.42
2023-04-20T11:13:25.378Z,19.25
2023-04-20T11:15:58.610Z,15.40
2023-04-20T11:18:32.079Z,17.25
2023-04-20T11:21:05.292Z,15.57
2023-04-20T11:23:39.783Z,20.45
2023-04-20T11:26:13.047Z,16.08
2023-04-20T11:28:55.154Z,17.02
2023-04-20T11:31:29.358Z,14.18
2023-04-20T11:34:03.450Z,17.00
2023-04-20T11:36:40.588Z,26.23
2023-04-20T11:39:15.944Z,18.23
2023-04-20T11:41:49.378Z,16.48
2023-04-20T11:44:22.905Z,22.55
2023-04-20T11:46:57.554Z,21.92
2023-04-20T11:49:30.933Z,22.00
2023-04-20T11:52:04.387Z,23.42
2023-04-20T11:54:38.913Z,11.90
2023-04-20T11:57:12.044Z,13.13
2023-04-20T11:59:48.112Z,22.10
2023-04-20T12:05:58.158Z,20.88
2023-04-20T12:08:31.765Z,15.10
2023-04-20T12:11:06.900Z,13.35
2023-04-20T12:13:40.163Z,16.40
2023-04-20T12:16:13.465Z,14.73
2023-04-20T12:18:46.851Z,22.02
2023-04-20T12:21:20.130Z,13.15
2023-04-20T12:23:53.378Z,10.40
2023-04-20T12:26:37.327Z,11.82
2023-04-20T12:29:11.473Z,16.70
2023-04-20T12:31:45.239Z,13.68
2023-04-20T12:36:52.110Z,19.08
2023-04-20T12:39:25.511Z,14.23
2023-04-20T12:42:00.193Z,10.48
2023-04-20T12:44:33.338Z,12.95
2023-04-20T12:47:06.616Z,13.88
2023-04-20T12:49:39.860Z,10.65
2023-04-20T12:52:13.077Z,11.98
2023-04-20T12:54:46.435Z,8.68
2023-04-20T12:57:20.955Z,8.77
2023-04-20T12:59:54.561Z,12.35
2023-04-20T13:02:27.937Z,10.57
2023-04-20T13:05:01.270Z,7.82
2023-04-20T13:07:34.451Z,8.98
2023-04-20T13:10:08.562Z,12.00
2023-04-20T13:12:43.080Z,13.85
2023-04-20T13:15:28.337Z,10.23
2023-04-20T13:18:05.862Z,14.55
2023-04-20T13:20:39.095Z,13.85
2023-04-20T13:23:12.285Z,12.98
2023-04-20T13:25:45.525Z,13.50
2023-04-20T13:28:20.480Z,9.77
2023-04-20T13:30:55.477Z,12.20
2023-04-20T13:33:28.718Z,14.40
2023-04-20T13:36:02.193Z,12.65
2023-04-20T13:38:35.415Z,10.65
2023-04-20T13:41:08.578Z,10.13
2023-04-20T13:43:44.949Z,12.13
2023-04-20T13:46:19.949Z,10.75
2023-04-20T13:48:53.257Z,13.38
2023-04-20T13:51:26.934Z,6.95
2023-04-20T13:54:00.182Z,10.25
2023-04-20T13:56:33.641Z,9.48
2023-04-20T13:59:08.184Z,10.77
2023-04-20T14:01:41.547Z,10.70
2023-04-20T14:04:16.823Z,10.15
2023-04-20T14:06:50.347Z,9.50
2023-04-20T14:09:23.494Z,6.95
2023-04-20T14:11:57.354Z,5.93
2023-04-20T14:14:31.876Z,9.85
2023-04-20T14:17:05.124Z,5.38
2023-04-20T14:19:38.364Z,11.55
2023-04-20T14:22:11.949Z,10.30
2023-04-20T14:24:47.643Z,11.00
2023-04-20T14:27:20.851Z,9.43
2023-04-20T14:29:57.074Z,10.65
2023-04-20T14:32:32.000Z,8.80
2023-04-20T14:35:06.156Z,9.93
2023-04-20T14:37:39.379Z,9.00
2023-04-20T14:40:13.503Z,11.77
2023-04-20T14:42:47.282Z,12.10
2023-04-20T14:50:29.180Z,5.93
2023-04-20T14:55:35.559Z,7.40
2023-04-20T14:58:08.713Z,9.25
2023-04-20T15:00:43.271Z,13.50
2023-04-20T15:03:17.845Z,19.38
2023-04-20T15:05:51.472Z,15.52
2023-04-20T15:08:24.761Z,6.18
2023-04-20T15:10:57.983Z,5.65
2023-04-20T15:13:31.184Z,10.50
2023-04-20T15:16:06.417Z,6.32
2023-04-20T15:18:39.624Z,11.15
2023-04-20T15:21:12.929Z,10.32
2023-04-20T15:23:46.154Z,6.88
2023-04-20T15:26:19.745Z,8.27
2023-04-20T15:31:27.598Z,9.50
2023-04-20T15:34:01.590Z,12.43
2023-04-20T15:36:34.761Z,7.03
2023-04-20T15:39:07.975Z,10.63
2023-04-20T15:41:41.189Z,8.50
2023-04-20T15:44:14.540Z,9.88
2023-04-20T15:46:49.285Z,9.38
2023-04-20T15:49:22.520Z,5.95
2023-04-20T15:51:55.703Z,12.48
2023-04-20T15:54:29.820Z,8.88
2023-04-20T15:57:03.239Z,9.55
2023-04-20T15:59:36.675Z,7.10
2023-04-20T16:02:11.435Z,13.35
2023-04-20T16:04:44.826Z,6.68
2023-04-20T16:07:18.102Z,12.45
2023-04-20T16:09:51.320Z,8.63
2023-04-20T16:12:24.552Z,5.57
2023-04-20T16:14:57.881Z,16.70
2023-04-20T16:17:32.456Z,8.05
2023-04-20T16:20:06.448Z,9.63
2023-04-20T16:22:39.779Z,9.13
2023-04-20T16:25:22.510Z,8.05
2023-04-20T16:27:55.886Z,13.95
2023-04-20T16:30:29.158Z,6.85
2023-04-20T16:33:03.881Z,8.05
2023-04-20T16:35:37.173Z,7.03
2023-04-20T16:38:11.022Z,7.63
2023-04-20T16:40:44.692Z,6.25
2023-04-20T16:43:17.898Z,9.73
2023-04-20T16:45:51.123Z,18.20
2023-04-20T16:48:25.930Z,16.05
2023-04-20T16:50:59.346Z,5.85
2023-04-20T16:53:32.841Z,15.02
2023-04-20T16:56:06.506Z,7.93
2023-04-20T16:58:39.941Z,12.88
2023-04-20T17:01:14.520Z,16.27
2023-04-20T17:03:49.250Z,17.08
2023-04-20T17:06:22.574Z,6.90
2023-04-20T17:09:01.334Z,7.95
2023-04-20T17:11:36.059Z,8.55
2023-04-20T17:14:09.781Z,12.82
2023-04-20T17:19:17.638Z,9.43
2023-04-20T17:21:50.893Z,12.05
2023-04-20T17:24:24.116Z,6.13
2023-04-20T17:26:57.336Z,8.82
2023-04-20T17:29:34.889Z,13.77
2023-04-20T17:32:08.705Z,8.90
2023-04-20T17:37:18.475Z,8.35
2023-04-20T17:39:51.733Z,9.70
2023-04-20T17:42:24.963Z,6.47
2023-04-20T17:44:58.247Z,7.25
2023-04-20T17:47:32.588Z,7.70
2023-04-20T17:50:09.088Z,8.98
2023-04-20T17:52:42.255Z,7.13
2023-04-20T17:55:15.477Z,10.95
2023-04-20T17:57:48.743Z,6.00
2023-04-20T18:00:23.576Z,8.18
2023-04-20T18:02:56.853Z,15.93
2023-04-20T18:05:31.556Z,13.20
2023-04-20T18:08:04.941Z,15.38
2023-04-20T18:10:38.343Z,7.57
2023-04-20T18:13:12.144Z,8.23
2023-04-20T18:15:45.555Z,13.25
2023-04-20T18:18:21.459Z,8.25
2023-04-20T18:20:56.054Z,5.63
2023-04-20T18:23:29.971Z,9.45
2023-04-20T18:26:03.280Z,13.57
2023-04-20T18:28:36.546Z,6.10
2023-04-20T18:31:09.748Z,6.25
2023-04-20T18:33:42.967Z,10.02
2023-04-20T18:36:17.889Z,13.35
2023-04-20T18:38:51.449Z,7.20
2023-04-20T18:41:25.769Z,9.30
2023-04-20T18:43:58.997Z,7.60
2023-04-20T18:46:32.323Z,10.52
2023-04-20T18:49:06.213Z,12.10
2023-04-20T18:51:40.926Z,13.60
2023-04-20T18:54:14.098Z,7.55
2023-04-20T18:56:47.262Z,9.30
2023-04-20T18:59:20.603Z,6.05
2023-04-20T19:01:53.822Z,10.73
2023-04-20T19:04:27.117Z,8.77
2023-04-20T19:07:01.763Z,8.43
2023-04-20T19:09:34.957Z,8.82
2023-04-20T19:12:08.170Z,9.98
2023-04-20T19:14:41.376Z,8.88
2023-04-20T19:17:14.585Z,5.82
2023-04-20T19:19:48.092Z,7.10
2023-04-20T19:22:22.700Z,7.10
2023-04-20T19:24:55.851Z,11.68
2023-04-20T19:27:30.420Z,5.28
2023-04-20T19:30:03.702Z,6.72
2023-04-20T19:32:37.171Z,6.05
2023-04-20T19:35:10.465Z,11.50
2023-04-20T19:37:44.952Z,35.25
2023-04-20T19:46:04.286Z,17.85
2023-04-20T19:48:37.818Z,7.68
2023-04-20T19:51:11.704Z,9.05
2023-04-20T19:53:44.964Z,8.57
2023-04-20T19:56:18.294Z,11.45
2023-04-20T19:58:51.479Z,9.93
2023-04-20T20:01:26.104Z,9.75
2023-04-20T20:03:59.578Z,6.85
2023-04-20T20:06:33.405Z,8.55
2023-04-20T20:11:42.088Z,8.95
2023-04-20T20:14:15.337Z,8.98
2023-04-20T20:16:49.852Z,11.10
2023-04-20T20:19:23.223Z,8.07
2023-04-20T20:21:56.379Z,8.95
2023-04-20T20:24:31.070Z,9.32
2023-04-20T20:27:04.401Z,12.85
2023-04-20T20:29:37.554Z,8.70
2023-04-20T20:32:12.086Z,9.10
2023-04-20T20:34:45.905Z,10.43
2023-04-20T20:37:21.049Z,8.98
2023-04-20T20:39:54.310Z,9.60
2023-04-20T20:42:30.428Z,10.52
2023-04-20T20:45:05.050Z,8.30
2023-04-20T20:47:40.147Z,12.02
2023-04-20T20:50:14.740Z,9.40
2023-04-20T20:52:47.996Z,10.02
2023-04-20T20:55:21.188Z,9.88
2023-04-20T20:57:54.367Z,8.18
2023-04-20T21:00:27.760Z,8.60
2023-04-20T21:03:02.576Z,11.75
2023-04-20T21:05:36.019Z,9.13
2023-04-20T21:08:09.951Z,11.95
2023-04-20T21:10:43.094Z,10.32
2023-04-20T21:13:18.911Z,8.02
2023-04-20T21:15:52.458Z,10.80
2023-04-20T21:18:27.036Z,8.43
2023-04-20T21:21:00.244Z,9.95
2023-04-20T21:23:33.498Z,9.98
2023-04-20T21:26:06.662Z,12.27
2023-04-20T21:28:39.963Z,11.48
2023-04-20T21:31:13.240Z,9.68
2023-04-20T21:33:47.787Z,11.07
2023-04-20T21:36:21.187Z,11.85
2023-04-20T21:38:54.490Z,13.00
2023-04-20T21:41:29.684Z,8.65
2023-04-20T21:44:03.367Z,12.40
2023-04-20T21:46:36.650Z,9.77
2023-04-20T21:49:11.198Z,9.90
2023-04-20T21:51:44.379Z,12.82
2023-04-20T21:54:17.538Z,12.70
2023-04-20T21:56:50.758Z,12.43
2023-04-20T21:59:24.026Z,12.32
2023-04-20T22:01:57.338Z,11.25
2023-04-20T22:04:32.233Z,11.80
2023-04-20T22:07:05.544Z,12.55
2023-04-20T22:09:38.782Z,11.48
2023-04-20T22:12:11.956Z,10.23
2023-04-20T22:14:45.631Z,15.05
2023-04-20T22:19:53.844Z,10.13
2023-04-20T22:22:27.001Z,12.93
2023-04-20T22:25:00.207Z,10.57
2023-04-20T22:27:34.204Z,13.07
2023-04-20T22:30:09.642Z,13.32
2023-04-20T22:32:42.981Z,11.88
2023-04-20T22:35:17.565Z,14.50
2023-04-20T22:37:50.726Z,16.50
2023-04-20T22:40:23.931Z,11.70
2023-04-20T22:42:57.087Z,12.10
2023-04-20T22:45:30.267Z,11.80
2023-04-20T22:48:03.659Z,11.43
2023-04-20T22:50:38.383Z,15.52
2023-04-20T22:53:13.541Z,16.02
2023-04-20T22:55:47.009Z,14.10
2023-04-20T22:58:20.255Z,11.73
2023-04-20T23:00:53.467Z,13.52
2023-04-20T23:03:26.954Z,8.82
2023-04-20T23:06:01.648Z,11.50
2023-04-20T23:08:34.835Z,11.38
2023-04-20T23:11:08.112Z,15.00
2023-04-20T23:13:41.427Z,10.13
2023-04-20T23:16:14.762Z,16.50
2023-04-20T23:18:47.948Z,11.23
2023-04-20T23:21:22.439Z,10.52
2023-04-20T23:23:56.763Z,9.93
2023-04-20T23:26:29.929Z,11.68
2023-04-20T23:29:03.110Z,11.23
2023-04-20T23:31:36.311Z,10.73
2023-04-20T23:34:09.493Z,12.82
2023-04-20T23:36:44.002Z,19.73
2023-04-20T23:39:20.242Z,10.18
2023-04-20T23:41:53.602Z,8.25
2023-04-20T23:44:26.742Z,9.93
2023-04-20T23:47:00.000Z,7.72
2023-04-20T23:49:33.199Z,9.98
2023-04-20T23:52:07.853Z,8.27
2023-04-20T23:54:41.086Z,10.75
2023-04-20T23:57:14.259Z,8.57
2023-04-20T23:59:47.448Z,9.30
